createdAt,value
2017-01-15T00:00:07.623Z,0.01
2017-01-15T00:01:07.345Z,0.09
2017-01-15T00:02:07.869Z,0.22
2017-01-15T00:03:07.550Z,0.04
2017-01-15T00:04:08.148Z,-0.12
2017-01-15T00:05:07.721Z,-0.13
2017-01-15T00:06:07.358Z,0.18
2017-01-15T00:07:08.028Z,0.06
2017-01-15T00:08:07.660Z,0.20
2017-01-15T00:09:07.446Z,0.20
2017-01-15T00:10:08.069Z,0.21
2017-01-15T00:11:07.681Z,0.26
2017-01-15T00:12:07.321Z,0.30
2017-01-15T00:13:07.853Z,0.11
2017-01-15T00:14:07.650Z,-0.06
2017-01-15T00:15:07.292Z,-0.36
2017-01-15T00:16:07.902Z,-0.26
2017-01-15T00:17:07.510Z,-0.09
2017-01-15T00:18:07.455Z,0.12
2017-01-15T00:19:07.994Z,0.20
2017-01-15T00:20:07.774Z,0.13
2017-01-15T00:21:07.450Z,0.23
2017-01-15T00:22:08.935Z,0.39
2017-01-15T00:23:07.426Z,0.31
2017-01-15T00:24:07.899Z,0.12
2017-01-15T00:25:07.747Z,0.24
2017-01-15T00:26:07.568Z,0.36
2017-01-15T00:27:08.243Z,0.30
2017-01-15T00:28:07.852Z,0.37
2017-01-15T00:29:07.603Z,0.17
2017-01-15T00:30:07.293Z,0.35
2017-01-15T00:31:07.798Z,0.36
2017-01-15T00:32:07.593Z,0.13
2017-01-15T00:33:08.039Z,0.32
2017-01-15T00:34:07.829Z,0.36
2017-01-15T00:35:07.523Z,0.29
2017-01-15T00:36:08.074Z,0.29
2017-01-15T00:37:07.654Z,0.39
2017-01-15T00:38:07.399Z,0.35
2017-01-15T00:39:07.835Z,-0.02
2017-01-15T00:40:07.309Z,-0.12
2017-01-15T00:41:07.816Z,-0.14
2017-01-15T00:42:07.517Z,0.03
2017-01-15T00:43:08.354Z,0.01
2017-01-15T00:44:07.870Z,0.28
2017-01-15T00:45:07.688Z,0.36
2017-01-15T00:46:07.352Z,0.37
2017-01-15T00:47:07.916Z,0.26
2017-01-15T00:48:07.363Z,0.30
2017-01-15T00:49:08.007Z,0.00
2017-01-15T00:50:07.850Z,0.28
2017-01-15T00:51:07.688Z,0.39
2017-01-15T00:52:07.401Z,0.21
2017-01-15T00:53:07.961Z,0.15
2017-01-15T00:54:07.605Z,0.07
2017-01-15T00:55:07.355Z,-0.08
2017-01-15T00:56:07.899Z,-0.04
2017-01-15T00:57:07.622Z,-0.09
2017-01-15T00:58:07.224Z,-0.21
2017-01-15T00:59:08.108Z,0.03
2017-01-15T01:00:07.744Z,0.16
2017-01-15T01:01:07.331Z,0.08
2017-01-15T01:02:07.916Z,0.28
2017-01-15T01:03:07.433Z,0.19
2017-01-15T01:04:08.199Z,0.26
2017-01-15T01:05:08.126Z,0.28
2017-01-15T01:06:07.688Z,0.21
2017-01-15T01:07:07.391Z,0.41
2017-01-15T01:08:07.853Z,0.30
2017-01-15T01:09:07.596Z,0.24
2017-01-15T01:10:07.501Z,0.11
2017-01-15T01:11:08.161Z,-0.19
2017-01-15T01:12:07.693Z,0.01
2017-01-15T01:13:07.269Z,0.03
2017-01-15T01:14:07.850Z,0.02
2017-01-15T01:15:07.547Z,0.15
2017-01-15T01:16:07.966Z,-0.21
2017-01-15T01:17:07.809Z,-0.17
2017-01-15T01:18:07.574Z,0.22
2017-01-15T01:19:07.280Z,-0.03
2017-01-15T01:20:07.822Z,-0.09
2017-01-15T01:21:07.296Z,0.03
2017-01-15T01:22:07.863Z,0.15
2017-01-15T01:23:07.529Z,0.29
2017-01-15T01:24:08.123Z,0.39
2017-01-15T01:25:07.720Z,0.35
2017-01-15T01:26:07.477Z,0.47
2017-01-15T01:27:07.961Z,0.34
2017-01-15T01:28:07.786Z,0.22
2017-01-15T01:29:07.534Z,-0.31
2017-01-15T01:30:08.059Z,-0.29
2017-01-15T01:31:07.701Z,0.09
2017-01-15T01:32:07.522Z,0.04
2017-01-15T01:33:07.994Z,0.20
2017-01-15T01:34:07.526Z,0.12
2017-01-15T01:35:08.020Z,-0.06
2017-01-15T01:36:07.905Z,0.12
2017-01-15T01:37:07.501Z,0.10
2017-01-15T01:38:08.018Z,0.25
2017-01-15T01:39:07.645Z,0.23
2017-01-15T01:40:07.279Z,-0.04
2017-01-15T01:41:07.777Z,-0.02
2017-01-15T01:42:07.517Z,-0.30
2017-01-15T01:43:07.992Z,-0.04
2017-01-15T01:44:07.557Z,-0.28
2017-01-15T01:45:08.091Z,-0.18
2017-01-15T01:46:07.762Z,0.00
2017-01-15T01:47:07.368Z,0.05
2017-01-15T01:48:07.888Z,0.21
2017-01-15T01:49:07.688Z,0.02
2017-01-15T01:50:07.336Z,-0.21
2017-01-15T01:51:07.936Z,-0.19
2017-01-15T01:52:07.699Z,-0.12
2017-01-15T01:53:07.507Z,-0.16
2017-01-15T01:54:08.010Z,-0.36
2017-01-15T01:55:07.555Z,-0.61
2017-01-15T01:56:08.289Z,-0.51
2017-01-15T01:57:08.169Z,-0.24
2017-01-15T01:58:07.800Z,-0.52
2017-01-15T01:59:07.738Z,-0.51
2017-01-15T02:00:26.174Z,-0.29
2017-01-15T02:01:07.943Z,-0.57
2017-01-15T02:02:07.435Z,-0.34
2017-01-15T02:03:07.865Z,-0.44
2017-01-15T02:04:07.430Z,-0.30
2017-01-15T02:05:08.087Z,-0.71
2017-01-15T02:06:07.777Z,-0.51
2017-01-15T02:07:07.558Z,-0.55
2017-01-15T02:08:08.312Z,-0.69
2017-01-15T02:09:07.833Z,-0.33
2017-01-15T02:10:07.698Z,-0.70
2017-01-15T02:11:07.545Z,-0.51
2017-01-15T02:12:08.168Z,-0.45
2017-01-15T02:13:07.887Z,-0.45
2017-01-15T02:14:07.593Z,-0.36
2017-01-15T02:15:07.395Z,-0.38
2017-01-15T02:16:08.051Z,-0.34
2017-01-15T02:17:07.776Z,-0.25
2017-01-15T02:18:07.676Z,-0.31
2017-01-15T02:19:07.313Z,-0.60
2017-01-15T02:20:07.951Z,-0.22
2017-01-15T02:21:07.773Z,-0.44
2017-01-15T02:22:07.582Z,-0.30
2017-01-15T02:23:07.244Z,-0.29
2017-01-15T02:24:08.011Z,-0.16
2017-01-15T02:25:07.685Z,-0.42
2017-01-15T02:26:07.464Z,-0.61
2017-01-15T02:27:08.182Z,-0.52
2017-01-15T02:28:07.912Z,-0.28
2017-01-15T02:29:07.623Z,-0.30
2017-01-15T02:30:07.385Z,-0.19
2017-01-15T02:31:07.975Z,-0.29
2017-01-15T02:32:07.845Z,-0.13
2017-01-15T02:33:07.604Z,-0.42
2017-01-15T02:34:07.595Z,-0.45
2017-01-15T02:35:07.354Z,-0.22
2017-01-15T02:36:07.966Z,-0.31
2017-01-15T02:37:07.677Z,-0.24
2017-01-15T02:38:07.425Z,0.02
2017-01-15T02:39:08.095Z,-0.03
2017-01-15T02:40:07.823Z,-0.27
2017-01-15T02:41:07.356Z,-0.03
2017-01-15T02:42:08.024Z,-0.01
2017-01-15T02:43:07.860Z,-0.15
2017-01-15T02:44:07.925Z,-0.20
2017-01-15T02:45:07.589Z,-0.04
2017-01-15T02:46:07.313Z,-0.05
2017-01-15T02:47:07.961Z,-0.48
2017-01-15T02:48:07.633Z,-0.24
2017-01-15T02:49:07.299Z,-0.21
2017-01-15T02:50:07.824Z,-0.08
2017-01-15T02:51:07.592Z,0.10
2017-01-15T02:52:07.477Z,0.22
2017-01-15T02:53:07.288Z,0.05
2017-01-15T02:54:07.583Z,0.06
2017-01-15T02:55:07.296Z,-0.22
2017-01-15T02:56:07.996Z,-0.20
2017-01-15T02:57:07.614Z,-0.27
2017-01-15T02:58:07.312Z,-0.15
2017-01-15T02:59:07.900Z,-0.19
2017-01-15T03:00:07.552Z,0.02
2017-01-15T03:01:08.101Z,0.01
2017-01-15T03:02:07.819Z,-0.01
2017-01-15T03:03:07.485Z,-0.15
2017-01-15T03:04:07.779Z,-0.14
2017-01-15T03:05:07.470Z,-0.14
2017-01-15T03:06:08.346Z,-0.36
2017-01-15T03:07:07.937Z,-0.17
2017-01-15T03:08:07.714Z,0.07
2017-01-15T03:09:07.581Z,-0.12
2017-01-15T03:10:07.272Z,-0.13
2017-01-15T03:11:08.035Z,-0.15
2017-01-15T03:12:07.717Z,0.04
2017-01-15T03:13:07.608Z,-0.07
2017-01-15T03:14:07.463Z,-0.19
2017-01-15T03:15:07.958Z,-0.12
2017-01-15T03:16:07.704Z,-0.15
2017-01-15T03:17:07.389Z,-0.20
2017-01-15T03:18:08.012Z,-0.18
2017-01-15T03:19:07.714Z,-0.06
2017-01-15T03:20:07.525Z,-0.21
2017-01-15T03:21:08.121Z,-0.05
2017-01-15T03:22:07.808Z,-0.03
2017-01-15T03:23:07.575Z,-0.04
2017-01-15T03:24:08.052Z,-0.10
2017-01-15T03:25:07.905Z,-0.31
2017-01-15T03:26:07.634Z,-0.20
2017-01-15T03:27:07.340Z,-0.12
2017-01-15T03:28:08.068Z,0.17
2017-01-15T03:29:07.732Z,0.11
2017-01-15T03:30:07.562Z,-0.23
2017-01-15T03:31:08.069Z,-0.40
2017-01-15T03:32:07.840Z,-0.29
2017-01-15T03:33:07.656Z,-0.06
2017-01-15T03:34:07.252Z,-0.19
2017-01-15T03:35:07.904Z,-0.23
2017-01-15T03:36:07.595Z,0.04
2017-01-15T03:37:07.554Z,0.01
2017-01-15T03:38:08.035Z,-0.34
2017-01-15T03:39:07.625Z,-0.01
2017-01-15T03:40:07.240Z,-0.01
2017-01-15T03:41:07.875Z,0.01
2017-01-15T03:42:07.504Z,0.06
2017-01-15T03:43:08.196Z,-0.07
2017-01-15T03:44:07.759Z,-0.27
2017-01-15T03:45:07.397Z,-0.21
2017-01-15T03:46:08.115Z,-0.17
2017-01-15T03:47:07.818Z,-0.07
2017-01-15T03:48:07.495Z,0.08
2017-01-15T03:49:08.221Z,0.08
2017-01-15T03:50:07.970Z,0.03
2017-01-15T03:51:07.622Z,-0.13
2017-01-15T03:52:07.227Z,-0.00
2017-01-15T03:53:07.885Z,0.20
2017-01-15T03:54:07.590Z,0.14
2017-01-15T03:55:07.314Z,0.16
2017-01-15T03:56:07.827Z,-0.17
2017-01-15T03:57:08.116Z,-0.18
2017-01-15T03:58:07.789Z,-0.08
2017-01-15T03:59:07.579Z,-0.14
2017-01-15T04:00:07.724Z,0.17
2017-01-15T04:01:08.059Z,0.06
2017-01-15T04:02:07.675Z,0.07
2017-01-15T04:03:07.142Z,0.15
2017-01-15T04:04:07.332Z,-0.02
2017-01-15T04:05:07.942Z,0.16
2017-01-15T04:06:07.654Z,-0.24
2017-01-15T04:07:07.322Z,-0.10
2017-01-15T04:08:08.126Z,-0.12
2017-01-15T04:09:07.752Z,-0.26
2017-01-15T04:10:07.504Z,-0.22
2017-01-15T04:11:07.986Z,-0.05
2017-01-15T04:12:07.809Z,-0.17
2017-01-15T04:13:07.509Z,-0.28
2017-01-15T04:14:08.341Z,-0.10
2017-01-15T04:15:07.963Z,0.06
2017-01-15T04:16:07.784Z,0.18
2017-01-15T04:17:07.590Z,0.18
2017-01-15T04:18:07.244Z,0.17
2017-01-15T04:19:07.980Z,-0.17
2017-01-15T04:20:07.680Z,-0.28
2017-01-15T04:21:07.547Z,-0.20
2017-01-15T04:22:08.102Z,0.10
2017-01-15T04:23:07.781Z,0.11
2017-01-15T04:24:07.448Z,-0.13
2017-01-15T04:25:08.023Z,-0.11
2017-01-15T04:26:07.813Z,-0.28
2017-01-15T04:27:07.647Z,-0.48
2017-01-15T04:28:07.312Z,-0.36
2017-01-15T04:29:08.197Z,-0.32
2017-01-15T04:30:08.074Z,-0.09
2017-01-15T04:31:07.841Z,0.24
2017-01-15T04:32:07.486Z,-0.07
2017-01-15T04:33:07.943Z,-0.02
2017-01-15T04:34:07.590Z,-0.16
2017-01-15T04:35:07.329Z,-0.02
2017-01-15T04:36:07.980Z,-0.03
2017-01-15T04:37:07.685Z,0.09
2017-01-15T04:38:07.283Z,0.12
2017-01-15T04:39:08.009Z,0.06
2017-01-15T04:40:07.844Z,-0.24
2017-01-15T04:41:07.512Z,-0.22
2017-01-15T04:42:08.049Z,0.02
2017-01-15T04:43:07.691Z,-0.10
2017-01-15T04:44:07.146Z,-0.07
2017-01-15T04:45:08.090Z,0.01
2017-01-15T04:46:07.684Z,-0.10
2017-01-15T04:47:07.354Z,0.13
2017-01-15T04:48:08.154Z,0.09
2017-01-15T04:49:07.947Z,0.15
2017-01-15T04:50:07.595Z,0.30
2017-01-15T04:51:07.342Z,0.24
2017-01-15T04:52:07.975Z,0.21
2017-01-15T04:53:07.756Z,0.19
2017-01-15T04:54:07.458Z,0.37
2017-01-15T04:55:08.099Z,0.57
2017-01-15T04:56:07.736Z,0.52
2017-01-15T04:57:07.409Z,0.31
2017-01-15T04:58:07.980Z,0.12
2017-01-15T04:59:07.639Z,0.23
2017-01-15T05:00:07.484Z,0.15
2017-01-15T05:01:08.302Z,-0.05
2017-01-15T05:02:07.921Z,-0.32
2017-01-15T05:03:07.532Z,0.01
2017-01-15T05:04:08.052Z,0.07
2017-01-15T05:05:07.844Z,-0.10
2017-01-15T05:06:07.681Z,-0.47
2017-01-15T05:07:07.396Z,-0.13
2017-01-15T05:08:08.240Z,-0.20
2017-01-15T05:09:07.913Z,-0.04
2017-01-15T05:10:07.788Z,-0.04
2017-01-15T05:11:07.601Z,0.10
2017-01-15T05:12:07.107Z,-0.06
2017-01-15T05:13:08.010Z,0.18
2017-01-15T05:14:07.769Z,-0.03
2017-01-15T05:15:07.830Z,-0.02
2017-01-15T05:16:07.499Z,0.05
2017-01-15T05:17:08.294Z,-0.10
2017-01-15T05:18:07.922Z,-0.06
2017-01-15T05:19:07.668Z,0.11
2017-01-15T05:20:07.566Z,0.07
2017-01-15T05:21:07.202Z,0.03
2017-01-15T05:22:07.796Z,-0.09
2017-01-15T05:23:07.420Z,0.06
2017-01-15T05:24:08.212Z,0.19
2017-01-15T05:25:10.448Z,0.31
2017-01-15T05:26:08.012Z,0.07
2017-01-15T05:27:07.734Z,0.08
2017-01-15T05:28:07.450Z,0.23
2017-01-15T05:29:08.062Z,0.31
2017-01-15T05:30:07.678Z,0.05
2017-01-15T05:31:07.356Z,0.14
2017-01-15T05:32:08.289Z,0.13
2017-01-15T05:33:07.880Z,0.16
2017-01-15T05:34:07.536Z,0.32
2017-01-15T05:35:08.055Z,0.10
2017-01-15T05:36:07.865Z,0.02
2017-01-15T05:37:07.667Z,-0.09
2017-01-15T05:38:07.390Z,0.04
2017-01-15T05:39:08.179Z,0.12
2017-01-15T05:40:07.826Z,0.05
2017-01-15T05:41:07.601Z,0.29
2017-01-15T05:42:07.321Z,0.27
2017-01-15T05:43:08.215Z,0.31
2017-01-15T05:44:07.899Z,0.33
2017-01-15T05:45:07.602Z,0.00
2017-01-15T05:46:07.353Z,-0.03
2017-01-15T05:47:09.491Z,-0.20
2017-01-15T05:48:07.544Z,-0.10
2017-01-15T05:49:08.325Z,-0.12
2017-01-15T05:50:08.110Z,0.12
2017-01-15T05:51:07.776Z,-0.24
2017-01-15T05:52:07.333Z,0.02
2017-01-15T05:53:08.036Z,0.15
2017-01-15T05:54:07.917Z,0.19
2017-01-15T05:55:07.703Z,0.09
2017-01-15T05:56:07.545Z,0.20
2017-01-15T05:57:08.287Z,0.29
2017-01-15T05:58:08.183Z,0.30
2017-01-15T05:59:07.868Z,0.29
2017-01-15T06:00:07.441Z,0.38
2017-01-15T06:01:07.935Z,0.24
2017-01-15T06:02:07.587Z,0.24
2017-01-15T06:03:07.556Z,0.33
2017-01-15T06:04:08.205Z,-0.09
2017-01-15T06:05:07.944Z,0.02
2017-01-15T06:06:07.407Z,0.23
2017-01-15T06:07:07.400Z,0.03
2017-01-15T06:08:08.062Z,0.06
2017-01-15T06:09:07.718Z,0.06
2017-01-15T06:10:07.585Z,0.24
2017-01-15T06:11:07.465Z,0.04
2017-01-15T06:12:08.037Z,-0.13
2017-01-15T06:13:07.711Z,0.07
2017-01-15T06:14:07.658Z,0.02
2017-01-15T06:15:07.406Z,0.04
2017-01-15T06:16:08.065Z,0.07
2017-01-15T06:17:07.872Z,0.11
2017-01-15T06:18:07.543Z,0.29
2017-01-15T06:19:08.105Z,0.23
2017-01-15T06:20:07.791Z,0.17
2017-01-15T06:21:07.450Z,-0.08
2017-01-15T06:22:08.044Z,0.09
2017-01-15T06:23:07.669Z,-0.10
2017-01-15T06:24:07.172Z,0.05
2017-01-15T06:25:07.567Z,0.23
2017-01-15T06:26:08.400Z,0.19
2017-01-15T06:27:08.944Z,0.39
2017-01-15T06:28:08.107Z,0.33
2017-01-15T06:29:07.684Z,0.24
2017-01-15T06:30:07.484Z,0.14
2017-01-15T06:31:08.124Z,0.24
2017-01-15T06:32:07.736Z,0.15
2017-01-15T06:33:08.373Z,0.32
2017-01-15T06:34:08.322Z,0.21
2017-01-15T06:35:08.086Z,0.34
2017-01-15T06:36:07.751Z,0.20
2017-01-15T06:37:07.409Z,0.24
2017-01-15T06:38:08.016Z,0.41
2017-01-15T06:39:07.863Z,0.46
2017-01-15T06:40:07.639Z,0.54
2017-01-15T06:41:07.416Z,0.15
2017-01-15T06:42:08.203Z,0.37
2017-01-15T06:43:07.920Z,0.27
2017-01-15T06:44:07.520Z,0.40
2017-01-15T06:45:08.826Z,0.22
2017-01-15T06:46:07.468Z,0.33
2017-01-15T06:47:07.891Z,0.09
2017-01-15T06:48:08.301Z,0.27
2017-01-15T06:49:08.023Z,-0.11
2017-01-15T06:50:07.716Z,-0.10
2017-01-15T06:51:07.457Z,-0.35
2017-01-15T06:52:08.140Z,-0.39
2017-01-15T06:53:07.904Z,-0.47
2017-01-15T06:54:07.619Z,-0.95
2017-01-15T06:55:07.623Z,-0.52
2017-01-15T06:56:07.265Z,-0.51
2017-01-15T06:57:08.088Z,-0.59
2017-01-15T06:58:07.715Z,-0.68
2017-01-15T06:59:07.332Z,-0.57
2017-01-15T07:00:08.109Z,-0.28
2017-01-15T07:01:07.871Z,-0.33
2017-01-15T07:02:08.326Z,-0.06
2017-01-15T07:03:08.160Z,-0.33
2017-01-15T07:05:08.119Z,0.01
2017-01-15T07:06:07.932Z,-0.08
2017-01-15T07:07:07.742Z,-0.01
2017-01-15T07:08:07.591Z,-0.24
2017-01-15T07:09:07.252Z,-0.26
2017-01-15T07:10:07.921Z,-0.41
2017-01-15T07:11:07.530Z,-0.24
2017-01-15T07:12:08.175Z,-0.02
2017-01-15T07:13:07.854Z,-0.04
2017-01-15T07:14:07.473Z,-0.16
2017-01-15T07:15:08.165Z,-0.03
2017-01-15T07:16:07.987Z,-0.02
2017-01-15T07:17:07.903Z,-0.08
2017-01-15T07:18:07.766Z,-0.16
2017-01-15T07:19:07.493Z,0.10
2017-01-15T07:20:08.344Z,-0.01
2017-01-15T07:21:08.249Z,0.11
2017-01-15T07:22:07.921Z,0.07
2017-01-15T07:23:07.614Z,0.20
2017-01-15T07:24:07.200Z,0.17
2017-01-15T07:25:07.822Z,0.25
2017-01-15T07:26:07.587Z,-0.00
2017-01-15T07:27:07.388Z,0.01
2017-01-15T07:28:17.872Z,0.15
2017-01-15T07:29:07.677Z,0.19
2017-01-15T07:30:07.437Z,-0.10
2017-01-15T07:31:08.861Z,0.10
2017-01-15T07:32:08.265Z,-0.20
2017-01-15T07:33:07.984Z,-0.01
2017-01-15T07:34:07.742Z,-0.03
2017-01-15T07:35:07.614Z,0.09
2017-01-15T07:36:07.495Z,-0.19
2017-01-15T07:37:08.381Z,-0.34
2017-01-15T07:38:07.999Z,-0.07
2017-01-15T07:39:07.739Z,0.03
2017-01-15T07:40:07.335Z,0.14
2017-01-15T07:41:08.144Z,0.28
2017-01-15T07:42:07.834Z,0.12
2017-01-15T07:43:07.540Z,0.21
2017-01-15T07:44:08.263Z,0.15
2017-01-15T07:45:07.941Z,0.18
2017-01-15T07:46:07.551Z,0.25
2017-01-15T07:47:08.240Z,0.34
2017-01-15T07:48:22.228Z,-0.06
2017-01-15T07:49:07.409Z,0.16
2017-01-15T07:50:08.110Z,0.14
2017-01-15T07:51:07.743Z,0.43
2017-01-15T07:52:07.399Z,0.33
2017-01-15T07:53:08.111Z,0.02
2017-01-15T07:54:07.758Z,0.10
2017-01-15T07:55:07.635Z,-0.18
2017-01-15T07:56:07.841Z,0.02
2017-01-15T07:57:07.639Z,0.26
2017-01-15T07:58:08.050Z,0.03
2017-01-15T07:59:07.801Z,-0.09
2017-01-15T08:00:07.543Z,0.15
2017-01-15T08:01:08.253Z,0.22
2017-01-15T08:02:08.027Z,0.15
2017-01-15T08:03:07.621Z,-0.02
2017-01-15T08:04:07.511Z,-0.02
2017-01-15T08:05:08.132Z,0.09
2017-01-15T08:06:07.793Z,0.23
2017-01-15T08:07:07.474Z,-0.01
2017-01-15T08:08:07.249Z,0.25
2017-01-15T08:09:07.872Z,0.27
2017-01-15T08:10:07.904Z,0.23
2017-01-15T08:11:07.539Z,0.28
2017-01-15T08:12:08.284Z,0.13
2017-01-15T08:13:08.036Z,0.19
2017-01-15T08:14:07.885Z,0.33
2017-01-15T08:15:07.771Z,0.27
2017-01-15T08:16:07.651Z,0.22
2017-01-15T08:17:07.462Z,0.40
2017-01-15T08:18:08.339Z,0.52
2017-01-15T08:19:08.049Z,0.37
2017-01-15T08:20:07.690Z,0.23
2017-01-15T08:21:07.297Z,0.32
2017-01-15T08:22:07.855Z,0.21
2017-01-15T08:23:07.326Z,0.08
2017-01-15T08:24:08.290Z,0.26
2017-01-15T08:25:08.010Z,0.12
2017-01-15T08:26:07.817Z,0.03
2017-01-15T08:27:07.623Z,-0.15
2017-01-15T08:28:07.312Z,-0.10
2017-01-15T08:29:08.029Z,0.17
2017-01-15T08:30:07.953Z,0.07
2017-01-15T08:31:07.650Z,0.18
2017-01-15T08:32:07.338Z,0.40
2017-01-15T08:33:08.212Z,0.26
2017-01-15T08:34:07.965Z,0.45
2017-01-15T08:35:07.736Z,0.65
2017-01-15T08:36:07.363Z,0.68
2017-01-15T08:37:08.006Z,0.50
2017-01-15T08:38:07.706Z,0.67
2017-01-15T08:39:07.368Z,0.47
2017-01-15T08:40:08.079Z,0.07
2017-01-15T08:41:07.672Z,-0.01
2017-01-15T08:42:07.516Z,-0.20
2017-01-15T08:43:08.190Z,-0.11
2017-01-15T08:44:07.874Z,0.24
2017-01-15T08:45:07.627Z,-0.14
2017-01-15T08:46:07.433Z,-0.08
2017-01-15T08:47:08.038Z,0.06
2017-01-15T08:48:07.779Z,0.12
2017-01-15T08:49:07.486Z,0.11
2017-01-15T08:51:02.659Z,0.04
2017-01-15T08:51:07.928Z,0.13
2017-01-15T08:52:08.380Z,0.15
2017-01-15T08:53:08.051Z,0.24
2017-01-15T08:54:07.704Z,0.09
2017-01-15T08:55:07.599Z,0.05
2017-01-15T08:56:08.223Z,0.29
2017-01-15T08:57:08.026Z,0.47
2017-01-15T08:58:07.727Z,0.47
2017-01-15T08:59:07.386Z,0.50
2017-01-15T09:00:08.974Z,0.17
2017-01-15T09:01:07.828Z,0.08
2017-01-15T09:02:07.397Z,0.43
2017-01-15T09:03:08.261Z,0.28
2017-01-15T09:04:08.013Z,0.53
2017-01-15T09:05:17.474Z,0.72
2017-01-15T09:06:08.363Z,0.42
2017-01-15T09:07:08.042Z,0.62
2017-01-15T09:08:07.805Z,0.45
2017-01-15T09:09:07.396Z,0.56
2017-01-15T09:10:08.077Z,0.69
2017-01-15T09:11:27.333Z,0.44
2017-01-15T09:12:08.209Z,0.76
2017-01-15T09:13:08.005Z,0.78
2017-01-15T09:14:08.022Z,0.87
2017-01-15T09:15:08.826Z,0.35
2017-01-15T09:16:07.596Z,0.74
2017-01-15T09:17:07.808Z,0.56
2017-01-15T09:18:07.684Z,0.88
2017-01-15T09:19:07.362Z,1.03
2017-01-15T09:20:09.025Z,1.16
2017-01-15T09:21:07.733Z,1.13
2017-01-15T09:22:07.441Z,1.14
2017-01-15T09:23:08.199Z,1.20
2017-01-15T09:24:07.935Z,1.03
2017-01-15T09:25:07.614Z,0.75
2017-01-15T09:26:08.032Z,0.96
2017-01-15T09:27:07.743Z,1.01
2017-01-15T09:28:17.245Z,0.52
2017-01-15T09:29:07.992Z,0.73
2017-01-15T09:30:08.007Z,0.84
2017-01-15T09:31:07.598Z,0.77
2017-01-15T09:32:08.004Z,0.89
2017-01-15T09:33:07.852Z,1.04
2017-01-15T09:34:07.618Z,1.02
2017-01-15T09:35:07.338Z,0.93
2017-01-15T09:36:08.188Z,0.99
2017-01-15T09:37:07.885Z,1.00
2017-01-15T09:38:07.659Z,1.41
2017-01-15T09:39:07.577Z,1.00
2017-01-15T09:40:08.174Z,0.92
2017-01-15T09:41:07.803Z,1.23
2017-01-15T09:42:08.873Z,1.28
2017-01-15T09:43:07.765Z,1.35
2017-01-15T09:44:07.374Z,1.40
2017-01-15T09:45:08.035Z,1.56
2017-01-15T09:46:07.695Z,1.51
2017-01-15T09:47:08.176Z,1.12
2017-01-15T09:48:07.783Z,1.00
2017-01-15T09:49:07.529Z,0.73
2017-01-15T09:50:08.213Z,0.94
2017-01-15T09:51:08.863Z,1.30
2017-01-15T09:52:07.606Z,1.31
2017-01-15T09:53:07.580Z,1.10
2017-01-15T09:54:08.243Z,1.01
2017-01-15T09:55:07.877Z,1.09
2017-01-15T09:56:09.309Z,1.21
2017-01-15T09:57:08.003Z,0.79
2017-01-15T09:58:08.912Z,0.58
2017-01-15T09:59:07.752Z,0.70
2017-01-15T10:00:07.403Z,0.60
2017-01-15T10:01:08.110Z,0.40
2017-01-15T10:02:27.409Z,0.83
2017-01-15T10:03:08.895Z,1.12
2017-01-15T10:04:08.254Z,1.24
2017-01-15T10:05:07.895Z,1.30
2017-01-15T10:06:07.624Z,0.81
2017-01-15T10:07:07.256Z,0.23
2017-01-15T10:08:08.136Z,0.28
2017-01-15T10:09:07.829Z,0.83
2017-01-15T10:10:07.472Z,1.04
2017-01-15T10:11:07.397Z,1.13
2017-01-15T10:12:08.048Z,1.15
2017-01-15T10:13:07.723Z,1.05
2017-01-15T10:14:07.445Z,0.90
2017-01-15T10:15:08.078Z,0.74
2017-01-15T10:16:07.867Z,0.99
2017-01-15T10:17:07.667Z,1.20
2017-01-15T10:18:07.446Z,0.66
2017-01-15T10:19:08.279Z,1.01
2017-01-15T10:20:07.884Z,0.90
2017-01-15T10:21:07.668Z,0.79
2017-01-15T10:22:07.389Z,0.89
2017-01-15T10:23:08.199Z,0.89
2017-01-15T10:24:07.793Z,0.55
2017-01-15T10:25:07.452Z,0.33
2017-01-15T10:26:08.193Z,0.25
2017-01-15T10:27:08.108Z,0.45
2017-01-15T10:28:08.004Z,0.46
2017-01-15T10:29:07.905Z,0.64
2017-01-15T10:30:07.819Z,0.79
2017-01-15T10:31:07.668Z,0.89
2017-01-15T10:32:07.335Z,0.70
2017-01-15T10:33:07.957Z,1.06
2017-01-15T10:34:07.693Z,1.01
2017-01-15T10:35:07.391Z,0.95
2017-01-15T10:36:08.210Z,1.23
2017-01-15T10:37:08.056Z,1.50
2017-01-15T10:38:07.588Z,1.62
2017-01-15T10:39:07.350Z,1.67
2017-01-15T10:40:08.845Z,1.92
2017-01-15T10:41:08.549Z,1.71
2017-01-15T10:42:08.279Z,2.12
2017-01-15T10:43:08.729Z,1.68
2017-01-15T10:44:07.623Z,1.89
2017-01-15T10:45:08.106Z,1.77
2017-01-15T10:46:07.772Z,1.60
2017-01-15T10:47:07.388Z,1.40
2017-01-15T10:48:08.044Z,1.48
2017-01-15T10:49:07.742Z,1.39
2017-01-15T10:50:07.539Z,1.24
2017-01-15T10:51:08.094Z,1.22
2017-01-15T10:52:07.925Z,1.23
2017-01-15T10:53:07.664Z,1.32
2017-01-15T10:54:07.725Z,1.48
2017-01-15T10:55:07.346Z,1.47
2017-01-15T10:56:08.883Z,1.78
2017-01-15T10:57:07.716Z,1.60
2017-01-15T10:58:07.428Z,1.55
2017-01-15T10:59:08.105Z,1.40
2017-01-15T11:00:08.229Z,1.30
2017-01-15T11:01:26.564Z,1.69
2017-01-15T11:02:08.240Z,1.64
2017-01-15T11:03:07.846Z,1.74
2017-01-15T11:04:07.527Z,1.55
2017-01-15T11:05:08.296Z,1.36
2017-01-15T11:06:07.896Z,1.60
2017-01-15T11:07:07.609Z,1.70
2017-01-15T11:08:07.160Z,1.62
2017-01-15T11:09:07.898Z,1.58
2017-01-15T11:10:07.551Z,1.56
2017-01-15T11:11:08.260Z,1.68
2017-01-15T11:12:08.146Z,1.71
2017-01-15T11:13:07.820Z,1.80
2017-01-15T11:14:07.461Z,2.06
2017-01-15T11:15:08.089Z,2.16
2017-01-15T11:16:07.874Z,2.00
2017-01-15T11:17:07.721Z,2.11
2017-01-15T11:18:07.470Z,2.03
2017-01-15T11:19:08.221Z,2.27
2017-01-15T11:20:08.739Z,2.29
2017-01-15T11:21:07.390Z,2.33
2017-01-15T11:22:08.197Z,2.11
2017-01-15T11:23:07.850Z,2.21
2017-01-15T11:24:08.264Z,2.42
2017-01-15T11:25:26.459Z,1.91
2017-01-15T11:26:08.052Z,1.88
2017-01-15T11:27:07.667Z,1.59
2017-01-15T11:28:07.288Z,1.78
2017-01-15T11:29:07.996Z,1.85
2017-01-15T11:30:08.201Z,1.49
2017-01-15T11:31:07.908Z,1.59
2017-01-15T11:32:07.356Z,1.93
2017-01-15T11:33:08.128Z,1.90
2017-01-15T11:34:07.889Z,1.96
2017-01-15T11:35:07.551Z,1.85
2017-01-15T11:36:08.262Z,1.76
2017-01-15T11:37:08.069Z,1.39
2017-01-15T11:38:07.701Z,1.11
2017-01-15T11:39:07.425Z,1.09
2017-01-15T11:40:08.210Z,1.10
2017-01-15T11:41:07.908Z,0.78
2017-01-15T11:42:07.698Z,1.07
2017-01-15T11:43:07.354Z,1.21
2017-01-15T11:44:08.199Z,1.04
2017-01-15T11:45:08.039Z,1.42
2017-01-15T11:46:08.007Z,1.51
2017-01-15T11:47:07.735Z,1.55
2017-01-15T11:48:07.926Z,1.64
2017-01-15T11:49:07.598Z,1.12
2017-01-15T11:50:07.390Z,1.49
2017-01-15T11:51:07.920Z,1.62
2017-01-15T11:52:07.613Z,1.46
2017-01-15T11:53:07.571Z,1.77
2017-01-15T11:54:08.219Z,1.59
2017-01-15T11:55:07.849Z,1.68
2017-01-15T11:56:07.568Z,1.97
2017-01-15T11:57:07.191Z,1.75
2017-01-15T11:58:07.808Z,1.87
2017-01-15T11:59:07.644Z,1.55
2017-01-15T12:00:07.419Z,1.64
2017-01-15T12:01:08.342Z,1.59
2017-01-15T12:02:08.187Z,1.40
2017-01-15T12:03:08.050Z,1.03
2017-01-15T12:04:07.913Z,1.30
2017-01-15T12:05:07.549Z,1.42
2017-01-15T12:06:07.888Z,1.39
2017-01-15T12:07:07.626Z,1.65
2017-01-15T12:08:07.214Z,1.75
2017-01-15T12:09:07.926Z,1.45
2017-01-15T12:10:07.608Z,1.31
2017-01-15T12:11:07.488Z,1.00
2017-01-15T12:12:08.141Z,1.09
2017-01-15T12:13:07.614Z,0.71
2017-01-15T12:14:07.594Z,1.03
2017-01-15T12:15:07.422Z,1.00
2017-01-15T12:16:08.054Z,1.02
2017-01-15T12:17:07.879Z,1.03
2017-01-15T12:18:07.572Z,1.12
2017-01-15T12:19:08.281Z,0.79
2017-01-15T12:20:07.915Z,0.95
2017-01-15T12:21:07.635Z,0.68
2017-01-15T12:22:07.439Z,0.76
2017-01-15T12:23:08.099Z,1.01
2017-01-15T12:24:08.010Z,0.92
2017-01-15T12:25:07.647Z,0.91
2017-01-15T12:26:07.513Z,1.20
2017-01-15T12:27:08.457Z,1.23
2017-01-15T12:28:08.191Z,0.98
2017-01-15T12:29:07.921Z,1.07
2017-01-15T12:31:17.692Z,1.00
2017-01-15T12:32:07.344Z,1.25
2017-01-15T12:33:08.415Z,1.18
2017-01-15T12:34:08.102Z,1.00
2017-01-15T12:35:07.733Z,0.99
2017-01-15T12:36:07.501Z,0.92
2017-01-15T12:37:08.140Z,1.26
2017-01-15T12:38:07.851Z,1.29
2017-01-15T12:39:07.525Z,1.47
2017-01-15T12:40:08.102Z,1.51
2017-01-15T12:41:07.818Z,1.63
2017-01-15T12:42:07.519Z,1.44
2017-01-15T12:43:08.328Z,1.24
2017-01-15T12:44:08.031Z,1.09
2017-01-15T12:45:07.610Z,1.04
2017-01-15T12:46:07.138Z,0.95
2017-01-15T12:47:07.801Z,0.87
2017-01-15T12:48:07.532Z,1.03
2017-01-15T12:49:08.239Z,1.21
2017-01-15T12:50:07.951Z,1.24
2017-01-15T12:51:07.634Z,1.10
2017-01-15T12:52:07.053Z,1.02
2017-01-15T12:53:07.552Z,1.27
2017-01-15T12:54:07.989Z,1.20
2017-01-15T12:55:07.313Z,1.12
2017-01-15T12:56:07.995Z,1.18
2017-01-15T12:57:07.818Z,1.15
2017-01-15T12:58:07.546Z,1.10
2017-01-15T12:59:08.276Z,1.18
2017-01-15T13:00:07.965Z,1.10
2017-01-15T13:01:07.820Z,1.30
2017-01-15T13:02:07.409Z,1.15
2017-01-15T13:03:08.848Z,1.35
2017-01-15T13:04:07.600Z,1.13
2017-01-15T13:05:07.259Z,1.42
2017-01-15T13:06:07.969Z,1.21
2017-01-15T13:07:07.700Z,1.56
2017-01-15T13:08:07.521Z,1.69
2017-01-15T13:09:08.230Z,1.75
2017-01-15T13:10:07.838Z,1.89
2017-01-15T13:11:07.448Z,1.83
2017-01-15T13:12:08.243Z,1.75